Impacts TAF Board INFO
FOR SITUATIONAL AWARENESS. NOT TO BE USED FOR FLIGHT PLANNING PURPOSES.
IDs:

KDEN - Denver Intl, CO, US

Issued at 2029 UTC 20 Jan 2018
Updated at 2054 UTC 20 Jan 2018
Potential Impact None Slight Moderate High
Time1953Z 20/21Z 20/22Z 20/23Z 21/00Z 21/01Z 21/02Z 21/03Z 21/04Z 21/05Z 21/06Z 21/07Z 21/08Z 21/09Z>>
Type OBS PRVL PRVL PRVL PRVL PRVL PRVL PRVL
  [TEMP]  
PRVL
  [TEMP]  
PRVL
  [TEMP]  
PRVL PRVL PRVL PRVL
  [TEMP]  
VIS 10 >6 >6 >6 >6 >6 >6 >6
  [2]  
>6
  [2]  
>6
  [2]  
1 1 1 1
  [0.5]  
CIG 220 200 200 200 200 30 30 30
  [8]  
30
  [8]  
30
  [8]  
8 8 8 8
  [4]  
Cover BKN BKN BKN BKN BKN OVC OVC OVC
  [OVC]  
OVC
  [OVC]  
OVC
  [OVC]  
OVC OVC OVC OVC
  [OVC]  
FltCat VFR VFR VFR VFR VFR MVFR MVFR MVFR
  [IFR]  
MVFR
  [IFR]  
MVFR
  [IFR]  
IFR IFR IFR IFR
  [LIFR]  
WX -- -- -- -- -- -- -- --
  [-FZDZ BR]  
--
  [-FZDZ BR]  
--
  [-FZDZ BR]  
-FZDZ BR -FZDZ BR -FZDZ BR -FZDZ BR
  [-SN FZFG]  
WDir 10 10 10 10 10 50 50 50
[50]
50
[50]
50
[50]
40 40 40 40
[40]
WSpd 11 12 12 12 12 13 13 13
  [13]  
13
  [13]  
13
  [13]  
12 12 12 12
  [12]  
WGst -- -- -- -- -- -- -- --
  [--]  
--
  [--]  
--
  [--]  
-- -- -- --
  [--]  

Raw TAF
KDEN 202029Z 2020/2124 01012KT P6SM SCT070 SCT120 BKN200
  FM210100 05013KT P6SM SCT015 BKN030 OVC050
  TEMPO 2103/2106 2SM -FZDZ BR BKN008 OVC016
  FM210600 04012KT 1SM -FZDZ BR SCT004 OVC008
  TEMPO 2109/2112 1/2SM -SN FZFG OVC004
  FM211200 03014G22KT 3/4SM -SN BR OVC008
  FM211900 36022G32KT 1 1/2SM -SN BLSN BR OVC008


Raw METAR
KDEN 201953Z 01011KT 10SM FEW080 FEW140 BKN220 07/M05 A2975 RMK AO2 SLP046 T00721050
KDEN 201853Z 05010KT 10SM FEW080 FEW140 BKN220 06/M06 A2976 RMK AO2 SLP058 T00561056
KDEN 201753Z 03010KT 10SM FEW080 FEW140 BKN220 06/M06 A2978 RMK AO2 SLP059 T00561061 10078 20000 50006

METAR Board
Radar Display
Forecast Discussion

FOR SITUATIONAL AWARENESS. NOT TO BE USED FOR FLIGHT PLANNING PURPOSES.